Time;durP1;ratioP1;P1;durP2;ratioP2;P2;SDS_P1;SDS_P2;PMS_P1;PMS_P2;Temp;Humidity;BMP_temperature;BMP_pressure;BME280_temperature;BME280_humidity;BME280_pressure;Samples;Min_cycle;Max_cycle;Signal;HPM_P1;HPM_P2
2024/03/11 00:00:17;;;;;;;3.50;2.17;;;9.20;80.20;;;;;;5093899;28;20070;-73
2024/03/11 00:02:45;;;;;;;2.47;1.67;;;9.20;80.20;;;;;;5112151;28;20459;-73
2024/03/11 00:05:12;;;;;;;3.60;2.08;;;9.30;80.40;;;;;;5110680;28;20043;-73
2024/03/11 00:07:39;;;;;;;4.50;2.25;;;9.20;80.40;;;;;;5113194;28;20048;-73
2024/03/11 00:10:11;;;;;;;3.30;1.95;;;9.10;80.40;;;;;;5097400;28;20177;-73
2024/03/11 00:12:39;;;;;;;2.85;1.80;;;9.10;80.40;;;;;;5115226;28;20031;-73
2024/03/11 00:15:07;;;;;;;3.47;2.00;;;9.10;80.40;;;;;;5132634;28;20035;-73
2024/03/11 00:17:33;;;;;;;3.20;1.90;;;9.10;80.50;;;;;;5097436;28;20092;-73
2024/03/11 00:19:59;;;;;;;3.78;2.08;;;9.10;80.60;;;;;;5132485;28;20406;-73
2024/03/11 00:22:25;;;;;;;3.92;2.13;;;9.10;80.60;;;;;;5132557;28;20043;-73
2024/03/11 00:24:51;;;;;;;4.40;2.22;;;9.10;80.60;;;;;;5132794;28;20032;-73
2024/03/11 00:27:17;;;;;;;3.75;2.00;;;9.00;80.60;;;;;;5114308;28;20038;-73
2024/03/11 00:29:43;;;;;;;3.80;2.05;;;9.00;80.70;;;;;;5132844;28;20490;-73
2024/03/11 00:32:09;;;;;;;4.18;2.25;;;9.00;80.70;;;;;;5133112;28;20031;-73
2024/03/11 00:34:35;;;;;;;3.67;2.08;;;9.00;80.70;;;;;;5113886;28;20425;-73
2024/03/11 00:37:01;;;;;;;4.03;1.80;;;9.00;80.70;;;;;;5114147;28;20039;-73
2024/03/11 00:39:27;;;;;;;4.30;2.10;;;9.00;80.80;;;;;;5132390;28;20069;-73
2024/03/11 00:41:53;;;;;;;3.47;1.98;;;9.00;80.80;;;;;;5110389;28;20038;-73
2024/03/11 00:44:21;;;;;;;4.03;2.15;;;9.00;80.70;;;;;;5093641;28;20031;-73
2024/03/11 00:46:50;;;;;;;3.33;2.17;;;9.00;80.70;;;;;;5110289;28;20443;-73
2024/03/11 00:49:17;;;;;;;3.42;2.00;;;9.00;80.70;;;;;;5132532;28;20126;-73
2024/03/11 00:51:42;;;;;;;3.38;1.98;;;9.00;80.80;;;;;;5113776;28;20047;-73
2024/03/11 00:54:08;;;;;;;3.25;2.10;;;9.00;80.80;;;;;;5110221;28;20080;-73
2024/03/11 00:56:35;;;;;;;3.05;1.80;;;9.00;80.80;;;;;;5111941;28;20036;-73
2024/03/11 00:59:04;;;;;;;4.40;2.70;;;9.00;80.80;;;;;;5131622;28;20035;-73
2024/03/11 01:01:30;;;;;;;3.75;2.10;;;9.00;80.80;;;;;;5117469;28;20039;-72
2024/03/11 01:03:58;;;;;;;3.70;2.10;;;9.00;80.90;;;;;;5116744;28;20047;-73
2024/03/11 01:06:25;;;;;;;3.40;2.10;;;9.00;80.90;;;;;;5096588;28;20440;-73
2024/03/11 01:08:51;;;;;;;4.28;2.30;;;8.90;80.80;;;;;;5124658;28;20058;-73
2024/03/11 01:11:17;;;;;;;3.10;1.73;;;9.00;80.90;;;;;;5116807;28;20045;-73
2024/03/11 01:13:45;;;;;;;4.00;2.13;;;8.90;80.90;;;;;;5135453;28;20432;-72
2024/03/11 01:16:12;;;;;;;3.25;2.03;;;9.00;81.00;;;;;;5135708;28;20035;-73
2024/03/11 01:18:39;;;;;;;4.07;2.25;;;8.90;81.00;;;;;;5113836;28;20055;-74
2024/03/11 01:21:05;;;;;;;4.00;2.10;;;9.00;81.00;;;;;;5113141;28;20070;-72
2024/03/11 01:23:31;;;;;;;4.85;2.60;;;8.90;81.00;;;;;;5115023;28;20058;-73
2024/03/11 01:25:57;;;;;;;4.65;2.50;;;8.90;81.00;;;;;;5114449;28;20368;-73
2024/03/11 01:28:23;;;;;;;3.83;2.10;;;8.90;81.00;;;;;;5114712;28;20093;-73
2024/03/11 01:30:48;;;;;;;4.10;2.20;;;8.90;81.00;;;;;;5114302;28;20039;-73
2024/03/11 01:33:14;;;;;;;4.55;2.47;;;8.90;81.00;;;;;;5113674;28;20458;-73
2024/03/11 01:35:41;;;;;;;4.47;2.40;;;8.90;81.00;;;;;;5096042;28;20364;-73
2024/03/11 01:38:08;;;;;;;4.78;2.50;;;9.00;81.10;;;;;;5130709;28;20081;-73
2024/03/11 01:40:34;;;;;;;4.07;2.35;;;8.90;81.10;;;;;;5134807;28;20043;-73
2024/03/11 01:43:00;;;;;;;4.38;2.58;;;8.90;81.00;;;;;;5135152;28;20039;-73
2024/03/11 01:45:26;;;;;;;4.60;2.53;;;9.00;81.00;;;;;;5116585;28;20050;-73
2024/03/11 01:47:52;;;;;;;4.18;2.30;;;8.90;81.10;;;;;;5112628;28;20039;-73
2024/03/11 01:50:18;;;;;;;3.95;2.15;;;8.90;81.00;;;;;;5114212;28;20530;-73
2024/03/11 01:52:48;;;;;;;3.42;2.03;;;8.90;81.10;;;;;;5114341;28;20035;-73
2024/03/11 01:55:16;;;;;;;4.27;2.20;;;8.90;81.10;;;;;;5112821;28;20063;-73
2024/03/11 01:57:42;;;;;;;4.05;2.35;;;8.90;81.20;;;;;;5112436;28;20039;-73
2024/03/11 02:00:09;;;;;;;3.67;2.20;;;8.90;81.20;;;;;;5098748;28;20443;-73
2024/03/11 02:02:39;;;;;;;4.05;1.98;;;8.90;81.20;;;;;;5134445;28;20043;-73
2024/03/11 02:05:13;;;;;;;3.78;2.05;;;8.90;81.20;;;;;;5116018;28;20031;-73
2024/03/11 02:07:43;;;;;;;3.10;1.75;;;8.90;81.20;;;;;;5133226;27;20074;-73
2024/03/11 02:10:13;;;;;;;2.95;1.63;;;8.90;81.30;;;;;;5134211;28;20508;-73
2024/03/11 02:12:40;;;;;;;3.08;1.90;;;8.90;81.30;;;;;;5134501;28;20471;-73
2024/03/11 02:15:11;;;;;;;3.17;1.88;;;8.90;81.30;;;;;;5134423;28;20435;-73
2024/03/11 02:17:39;;;;;;;3.67;1.92;;;8.90;81.40;;;;;;5116692;28;20046;-73
2024/03/11 02:20:14;;;;;;;3.67;1.90;;;8.90;81.50;;;;;;5134536;28;20039;-73
2024/03/11 02:22:44;;;;;;;3.47;2.05;;;8.90;81.50;;;;;;5134506;28;20043;-73
2024/03/11 02:25:13;;;;;;;3.42;1.98;;;8.90;81.60;;;;;;5112552;28;20043;-73
2024/03/11 02:27:39;;;;;;;3.45;1.80;;;8.80;81.60;;;;;;5111896;28;20344;-73
2024/03/11 02:30:07;;;;;;;4.22;1.92;;;8.90;81.80;;;;;;5111904;28;20039;-73
2024/03/11 02:32:34;;;;;;;4.40;2.13;;;8.80;81.80;;;;;;5111918;28;20081;-74
2024/03/11 02:34:59;;;;;;;3.83;2.10;;;8.80;81.90;;;;;;5112446;28;20417;-73
2024/03/11 02:37:25;;;;;;;3.90;2.28;;;8.80;81.90;;;;;;5095031;28;20036;-72
2024/03/11 02:39:51;;;;;;;3.90;2.20;;;8.80;81.90;;;;;;5113554;28;20391;-73
2024/03/11 02:42:17;;;;;;;5.15;2.45;;;8.80;81.90;;;;;;5111698;28;20048;-73
2024/03/11 02:44:43;;;;;;;4.22;2.28;;;8.80;82.00;;;;;;5111530;28;20039;-73
2024/03/11 02:47:08;;;;;;;3.47;1.98;;;8.80;82.20;;;;;;5112975;28;20032;-73
2024/03/11 02:49:34;;;;;;;3.97;2.13;;;8.70;82.10;;;;;;5113243;28;20036;-73
2024/03/11 02:52:00;;;;;;;3.70;2.03;;;8.70;82.20;;;;;;5111807;28;20537;-73
2024/03/11 02:54:26;;;;;;;3.50;1.95;;;8.70;82.20;;;;;;5111481;28;20032;-74
2024/03/11 02:56:53;;;;;;;3.90;1.98;;;8.70;82.30;;;;;;5113287;28;20035;-73
2024/03/11 02:59:19;;;;;;;4.28;2.45;;;8.70;82.30;;;;;;5113231;28;20085;-73
2024/03/11 03:01:45;;;;;;;4.10;2.13;;;8.70;82.40;;;;;;5113260;28;20096;-73
2024/03/11 03:04:10;;;;;;;3.05;1.63;;;8.70;82.50;;;;;;5111621;28;20052;-73
2024/03/11 03:06:36;;;;;;;3.70;2.10;;;8.60;82.50;;;;;;5113221;28;20035;-73
2024/03/11 03:09:02;;;;;;;3.75;2.22;;;8.60;82.60;;;;;;5113065;28;20078;-73
2024/03/11 03:11:28;;;;;;;3.78;2.13;;;8.60;82.70;;;;;;5113048;28;20096;-73
2024/03/11 03:13:54;;;;;;;3.63;2.08;;;8.60;82.80;;;;;;5112985;28;20100;-73
2024/03/11 03:16:21;;;;;;;2.85;1.75;;;8.60;82.80;;;;;;5111784;28;20044;-73
2024/03/11 03:18:46;;;;;;;3.90;2.03;;;8.60;82.90;;;;;;5111231;28;20039;-73
2024/03/11 03:21:12;;;;;;;3.58;2.08;;;8.40;82.90;;;;;;5111875;28;20035;-73
2024/03/11 03:23:38;;;;;;;2.50;1.60;;;8.50;83.10;;;;;;5111209;28;20048;-73
2024/03/11 03:26:04;;;;;;;3.22;1.88;;;8.50;83.20;;;;;;5111181;28;20091;-73
2024/03/11 03:28:30;;;;;;;3.97;2.00;;;8.40;83.80;;;;;;5112378;28;20099;-73
2024/03/11 03:30:58;;;;;;;2.67;1.73;;;8.50;83.30;;;;;;5111498;28;20032;-73
2024/03/11 03:33:26;;;;;;;3.17;1.88;;;8.40;83.30;;;;;;5110806;28;20177;-73
2024/03/11 03:35:52;;;;;;;3.25;1.98;;;8.40;83.40;;;;;;5112257;28;20168;-73
2024/03/11 03:38:18;;;;;;;3.78;2.17;;;8.40;83.50;;;;;;5112723;28;20088;-73
2024/03/11 03:40:44;;;;;;;3.55;2.00;;;8.40;83.60;;;;;;5112624;28;20059;-73
2024/03/11 03:43:10;;;;;;;3.20;1.83;;;8.40;83.60;;;;;;5112379;28;20069;-73
2024/03/11 03:45:35;;;;;;;3.28;1.90;;;8.40;83.60;;;;;;5093944;28;20067;-73
2024/03/11 03:48:01;;;;;;;3.85;2.00;;;8.40;83.70;;;;;;5093831;28;20554;-73
2024/03/11 03:50:26;;;;;;;2.65;1.70;;;8.30;83.70;;;;;;5111140;28;20118;-73
2024/03/11 03:52:53;;;;;;;3.67;1.83;;;8.40;83.90;;;;;;5122555;28;20071;-74
2024/03/11 03:55:18;;;;;;;3.63;1.92;;;8.40;83.90;;;;;;5132690;28;20061;-73
2024/03/11 03:57:44;;;;;;;2.58;1.58;;;8.40;84.00;;;;;;5132623;28;20043;-73
2024/03/11 04:00:20;;;;;;;3.05;1.77;;;8.30;84.00;;;;;;5097266;28;20038;-73
2024/03/11 04:02:48;;;;;;;2.90;1.70;;;8.30;84.10;;;;;;5132430;28;20555;-74
2024/03/11 04:05:16;;;;;;;3.67;1.92;;;8.30;84.20;;;;;;5132973;28;20043;-74
2024/03/11 04:07:42;;;;;;;2.88;1.70;;;8.30;84.30;;;;;;5132848;28;20039;-73
2024/03/11 04:10:12;;;;;;;2.88;1.88;;;8.30;84.30;;;;;;5132525;28;20371;-74
2024/03/11 04:12:42;;;;;;;3.58;1.95;;;8.30;84.40;;;;;;5132375;28;20042;-73
2024/03/11 04:15:12;;;;;;;2.97;1.88;;;8.20;84.40;;;;;;5132612;28;20039;-74
2024/03/11 04:17:40;;;;;;;3.80;2.00;;;8.30;84.50;;;;;;5110723;28;20071;-74
2024/03/11 04:20:11;;;;;;;3.75;2.00;;;8.30;84.60;;;;;;5110476;28;20032;-73
2024/03/11 04:22:41;;;;;;;4.43;2.30;;;8.20;84.50;;;;;;5111978;28;20066;-74
2024/03/11 04:25:17;;;;;;;4.15;2.35;;;8.20;84.60;;;;;;5093634;28;20399;-73
2024/03/11 04:27:45;;;;;;;4.70;2.30;;;8.20;84.70;;;;;;5111711;28;20067;-73
2024/03/11 04:30:15;;;;;;;5.32;2.70;;;8.10;84.80;;;;;;5093659;28;20092;-74
2024/03/11 04:32:43;;;;;;;4.10;2.20;;;8.10;84.80;;;;;;5114266;28;20436;-73
2024/03/11 04:35:10;;;;;;;3.63;2.17;;;8.10;84.90;;;;;;5136299;28;20091;-73
2024/03/11 04:37:38;;;;;;;4.20;2.33;;;8.10;85.00;;;;;;5136200;28;20045;-73
2024/03/11 04:40:06;;;;;;;5.05;1.92;;;8.10;85.00;;;;;;5100373;28;20371;-73
2024/03/11 04:42:32;;;;;;;3.95;2.20;;;8.10;85.00;;;;;;5135493;28;20111;-73
2024/03/11 04:44:57;;;;;;;4.22;2.10;;;8.10;85.00;;;;;;5096917;28;20043;-73
2024/03/11 04:47:23;;;;;;;4.03;2.22;;;8.10;85.10;;;;;;5115495;28;20389;-73
2024/03/11 04:49:49;;;;;;;3.15;1.90;;;8.10;85.20;;;;;;5113845;28;20028;-73
2024/03/11 04:52:16;;;;;;;4.50;2.40;;;8.10;85.10;;;;;;5114919;28;20047;-73
2024/03/11 04:54:42;;;;;;;3.78;2.10;;;8.20;85.20;;;;;;5114786;28;20062;-73
2024/03/11 04:57:07;;;;;;;4.68;2.45;;;8.10;85.30;;;;;;5115159;28;20502;-73
2024/03/11 04:59:33;;;;;;;4.88;2.03;;;8.10;85.30;;;;;;5114565;28;20031;-73
2024/03/11 05:01:58;;;;;;;5.05;2.42;;;8.10;85.40;;;;;;5135555;28;20047;-73
2024/03/11 05:04:24;;;;;;;5.60;2.90;;;8.10;85.40;;;;;;5135816;28;20062;-73
2024/03/11 05:06:50;;;;;;;6.07;3.00;;;8.10;85.40;;;;;;5117029;28;20039;-73
2024/03/11 05:09:16;;;;;;;3.90;2.13;;;8.10;85.60;;;;;;5135999;28;20078;-73
2024/03/11 05:11:41;;;;;;;4.65;2.47;;;8.00;85.60;;;;;;5117035;28;20049;-73
2024/03/11 05:14:07;;;;;;;4.10;2.22;;;8.00;85.60;;;;;;5135559;28;20444;-73
2024/03/11 05:16:33;;;;;;;3.80;2.08;;;8.00;85.60;;;;;;5116936;28;20035;-73
2024/03/11 05:18:58;;;;;;;4.40;2.15;;;8.00;85.70;;;;;;5135328;28;20496;-73
2024/03/11 05:21:25;;;;;;;3.45;2.00;;;8.00;85.70;;;;;;5099998;28;20562;-73
2024/03/11 05:23:50;;;;;;;3.88;2.00;;;8.00;85.80;;;;;;5135097;28;20047;-73
2024/03/11 05:26:18;;;;;;;3.45;1.88;;;8.00;85.80;;;;;;5135666;28;20031;-74
2024/03/11 05:28:44;;;;;;;3.88;2.30;;;8.00;85.90;;;;;;5135307;28;20040;-73
2024/03/11 05:31:11;;;;;;;4.43;2.38;;;8.00;85.90;;;;;;5116631;28;20406;-73
2024/03/11 05:33:36;;;;;;;4.25;2.20;;;8.00;85.90;;;;;;5135035;28;20035;-73
2024/03/11 05:36:02;;;;;;;3.75;2.00;;;8.00;86.00;;;;;;5135086;28;20043;-73
2024/03/11 05:38:28;;;;;;;4.35;2.15;;;8.00;86.10;;;;;;5096111;28;20041;-73
2024/03/11 05:40:54;;;;;;;5.05;2.55;;;8.00;86.10;;;;;;5115113;28;20073;-74
2024/03/11 05:43:19;;;;;;;4.00;2.20;;;7.90;86.10;;;;;;5113071;28;20062;-74
2024/03/11 05:45:47;;;;;;;3.80;2.30;;;7.90;86.10;;;;;;5135295;28;20056;-73
2024/03/11 05:48:13;;;;;;;4.07;2.33;;;7.90;86.10;;;;;;5134808;28;20047;-73
2024/03/11 05:50:39;;;;;;;4.22;2.40;;;7.80;86.10;;;;;;5112958;28;20135;-73
2024/03/11 05:53:05;;;;;;;4.47;2.42;;;7.90;86.30;;;;;;5096041;28;20105;-73
2024/03/11 05:55:34;;;;;;;5.55;2.75;;;7.90;86.30;;;;;;5116342;28;20455;-74
2024/03/11 05:58:08;;;;;;;4.70;2.42;;;8.00;86.30;;;;;;5116749;28;20043;-74
2024/03/11 06:00:36;;;;;;;4.32;2.45;;;7.90;86.30;;;;;;5134650;28;20039;-73
2024/03/11 06:03:03;;;;;;;3.78;2.25;;;7.90;86.40;;;;;;5134558;28;20099;-73
2024/03/11 06:05:28;;;;;;;3.60;2.08;;;7.90;86.40;;;;;;5116076;28;20467;-74
2024/03/11 06:07:54;;;;;;;3.83;2.20;;;7.90;86.50;;;;;;5134813;28;20040;-73
2024/03/11 06:10:20;;;;;;;4.82;2.70;;;7.90;86.50;;;;;;5135056;28;20126;-73
2024/03/11 06:12:46;;;;;;;3.75;1.90;;;7.90;86.60;;;;;;5116225;28;20027;-73
2024/03/11 06:15:12;;;;;;;4.68;2.58;;;7.90;86.60;;;;;;5099024;28;20390;-73
2024/03/11 06:17:37;;;;;;;4.43;2.20;;;7.90;86.70;;;;;;5116121;28;20039;-73
2024/03/11 06:20:09;;;;;;;3.92;2.10;;;7.80;86.70;;;;;;5134906;28;20470;-74
2024/03/11 06:22:35;;;;;;;5.28;2.58;;;7.90;86.70;;;;;;5134334;28;20039;-73
2024/03/11 06:25:04;;;;;;;3.90;2.13;;;7.90;86.70;;;;;;5116024;28;20039;-73
2024/03/11 06:27:30;;;;;;;3.95;2.05;;;7.90;86.80;;;;;;5099617;28;20043;-73
2024/03/11 06:29:56;;;;;;;2.53;1.70;;;7.90;86.80;;;;;;5112899;28;20152;-73
2024/03/11 06:32:23;;;;;;;3.42;1.88;;;7.90;86.80;;;;;;5095638;28;20046;-74
2024/03/11 06:34:49;;;;;;;3.28;1.90;;;7.90;86.90;;;;;;5114046;28;20394;-73
2024/03/11 06:37:15;;;;;;;2.92;1.80;;;7.90;86.90;;;;;;5113773;28;20114;-73
2024/03/11 06:39:40;;;;;;;3.50;1.83;;;7.90;86.90;;;;;;5128372;28;20107;-73
2024/03/11 06:42:06;;;;;;;3.85;2.20;;;7.90;86.90;;;;;;5095174;28;20035;-73
2024/03/11 06:44:32;;;;;;;2.55;1.60;;;8.00;87.00;;;;;;5113876;28;20043;-74
2024/03/11 06:46:58;;;;;;;3.65;1.95;;;7.90;86.90;;;;;;5113663;28;20043;-73
2024/03/11 06:49:24;;;;;;;2.83;1.70;;;7.90;87.00;;;;;;5094901;28;20054;-73
2024/03/11 06:51:50;;;;;;;3.28;1.80;;;7.90;86.90;;;;;;5112081;28;20040;-73
2024/03/11 06:54:16;;;;;;;2.92;1.80;;;7.90;87.00;;;;;;5111050;28;20043;-73
2024/03/11 06:56:42;;;;;;;3.67;2.17;;;7.90;87.00;;;;;;5112077;28;20398;-73
2024/03/11 06:59:10;;;;;;;2.35;1.58;;;7.90;87.00;;;;;;5113107;28;20514;-73
2024/03/11 07:01:36;;;;;;;3.13;1.73;;;7.90;87.10;;;;;;5095232;28;20046;-73
2024/03/11 07:04:03;;;;;;;4.07;1.92;;;7.90;87.20;;;;;;5113273;28;20069;-73
2024/03/11 07:06:29;;;;;;;3.22;1.80;;;8.00;87.20;;;;;;5112902;28;20548;-73
2024/03/11 07:08:55;;;;;;;3.42;1.83;;;8.00;87.80;;;;;;5131705;28;20031;-73
2024/03/11 07:11:21;;;;;;;3.67;1.75;;;7.90;87.10;;;;;;5133721;28;20069;-73
2024/03/11 07:13:47;;;;;;;3.08;1.73;;;7.90;87.20;;;;;;5115111;28;20398;-73
2024/03/11 07:16:14;;;;;;;2.85;1.70;;;8.00;87.30;;;;;;5133331;28;20122;-73
2024/03/11 07:18:42;;;;;;;4.50;2.25;;;8.00;87.30;;;;;;5111854;28;20043;-73
2024/03/11 07:21:08;;;;;;;4.53;2.42;;;8.00;87.20;;;;;;5111959;28;20044;-73
2024/03/11 07:23:35;;;;;;;3.67;1.95;;;8.00;87.30;;;;;;5111628;28;20064;-74
2024/03/11 07:26:01;;;;;;;5.50;2.90;;;8.00;87.40;;;;;;5111575;28;20050;-73
2024/03/11 07:28:28;;;;;;;4.45;2.35;;;8.00;87.40;;;;;;5129549;28;20436;-73
2024/03/11 07:30:55;;;;;;;3.25;1.80;;;8.00;87.40;;;;;;5114910;28;20195;-73
2024/03/11 07:33:22;;;;;;;3.88;2.20;;;8.00;87.50;;;;;;5111589;28;20466;-73
2024/03/11 07:35:50;;;;;;;3.80;1.90;;;7.90;87.50;;;;;;5094696;28;20126;-74
2024/03/11 07:38:17;;;;;;;3.60;2.10;;;8.00;87.60;;;;;;5112784;28;20066;-73
2024/03/11 07:40:43;;;;;;;3.60;2.15;;;8.00;87.50;;;;;;5129149;28;20051;-73
2024/03/11 07:43:10;;;;;;;3.60;2.00;;;7.90;87.50;;;;;;5133430;28;20043;-74
2024/03/11 07:45:37;;;;;;;4.13;2.10;;;8.00;87.60;;;;;;5133171;28;20047;-73
2024/03/11 07:48:05;;;;;;;4.82;2.65;;;8.00;87.60;;;;;;5133099;28;20047;-73
2024/03/11 07:50:31;;;;;;;5.28;2.40;;;8.00;87.60;;;;;;5133155;28;20050;-73
2024/03/11 07:52:57;;;;;;;5.65;3.03;;;8.00;87.70;;;;;;5114820;28;20118;-73
2024/03/11 07:55:24;;;;;;;4.45;2.50;;;8.00;87.70;;;;;;5094009;28;20074;-73
2024/03/11 07:57:51;;;;;;;3.25;2.08;;;8.00;87.80;;;;;;5110898;28;20142;-75
2024/03/11 08:00:18;;;;;;;4.30;2.33;;;7.90;87.80;;;;;;5111199;28;20122;-74
2024/03/11 08:02:45;;;;;;;5.55;2.90;;;8.00;87.80;;;;;;5114606;28;20524;-74
2024/03/11 08:05:13;;;;;;;3.75;2.20;;;8.00;87.90;;;;;;5114800;28;20351;-74
2024/03/11 08:07:41;;;;;;;3.60;2.03;;;8.00;87.90;;;;;;5136097;28;20051;-74
2024/03/11 08:10:09;;;;;;;3.92;2.15;;;8.00;87.90;;;;;;5137101;28;20038;-74
2024/03/11 08:12:35;;;;;;;3.78;2.00;;;8.00;87.90;;;;;;5117995;28;20490;-73
2024/03/11 08:15:04;;;;;;;5.40;2.70;;;8.00;88.00;;;;;;5136476;28;20055;-73
2024/03/11 08:17:30;;;;;;;3.08;1.83;;;8.00;88.00;;;;;;5136389;28;20062;-73
2024/03/11 08:19:56;;;;;;;3.85;2.28;;;8.00;88.00;;;;;;5097750;28;20483;-73
2024/03/11 08:22:21;;;;;;;4.15;2.25;;;8.00;88.10;;;;;;5115386;28;20035;-73
2024/03/11 08:24:47;;;;;;;4.30;2.30;;;8.00;88.10;;;;;;5116009;28;20043;-73
2024/03/11 08:27:15;;;;;;;3.95;2.10;;;8.00;88.10;;;;;;5115879;28;20046;-73
2024/03/11 08:29:43;;;;;;;3.95;2.17;;;8.00;88.10;;;;;;5114875;28;20071;-73
2024/03/11 08:32:12;;;;;;;3.35;1.63;;;8.00;88.20;;;;;;5115972;28;20047;-74
2024/03/11 08:34:38;;;;;;;3.53;2.00;;;8.00;88.20;;;;;;5114080;28;20046;-73
2024/03/11 08:37:04;;;;;;;2.78;1.60;;;8.00;88.20;;;;;;5115421;28;20397;-73
2024/03/11 08:39:33;;;;;;;3.20;1.73;;;8.10;88.30;;;;;;5114074;28;20048;-73
2024/03/11 08:41:58;;;;;;;4.85;2.40;;;8.00;88.20;;;;;;5126663;28;20051;-72
2024/03/11 08:44:25;;;;;;;3.70;2.10;;;8.00;88.20;;;;;;5136364;28;20049;-73
2024/03/11 08:46:51;;;;;;;4.20;1.90;;;8.00;88.20;;;;;;5117696;28;20039;-72
2024/03/11 08:49:17;;;;;;;2.42;1.70;;;8.00;88.30;;;;;;5117235;28;20042;-73
2024/03/11 08:51:42;;;;;;;3.15;1.83;;;8.10;88.40;;;;;;5118125;28;20079;-73
2024/03/11 08:54:09;;;;;;;4.07;2.20;;;8.00;88.40;;;;;;5117408;28;20035;-74
2024/03/11 08:56:36;;;;;;;3.60;2.03;;;8.10;88.40;;;;;;5135794;28;20142;-73
2024/03/11 08:59:10;;;;;;;4.90;2.20;;;8.10;88.50;;;;;;5117322;28;20035;-74
2024/03/11 09:01:40;;;;;;;4.00;2.20;;;8.10;88.40;;;;;;5117252;28;20379;-72
2024/03/11 09:04:10;;;;;;;4.03;2.28;;;8.00;88.40;;;;;;5117685;28;20409;-73
2024/03/11 09:06:41;;;;;;;4.00;2.10;;;8.00;88.40;;;;;;5114041;28;20039;-73
2024/03/11 09:09:08;;;;;;;4.13;2.22;;;8.00;88.50;;;;;;5097334;28;20035;-73
2024/03/11 09:11:34;;;;;;;4.28;2.40;;;8.00;88.50;;;;;;5100378;28;20041;-73
2024/03/11 09:14:00;;;;;;;4.50;2.47;;;8.00;88.50;;;;;;5116888;28;20043;-73
2024/03/11 09:16:27;;;;;;;4.43;2.30;;;8.10;88.60;;;;;;5116594;27;20092;-72
2024/03/11 09:18:57;;;;;;;3.60;2.00;;;8.00;88.70;;;;;;5135409;28;20035;-72
2024/03/11 09:21:23;;;;;;;4.28;2.03;;;8.00;88.70;;;;;;5113580;28;20032;-73
2024/03/11 09:23:48;;;;;;;5.05;2.53;;;8.10;88.70;;;;;;5096440;28;20042;-72
2024/03/11 09:26:14;;;;;;;4.43;1.98;;;8.10;88.70;;;;;;5114621;28;20044;-73
2024/03/11 09:28:40;;;;;;;5.50;2.97;;;8.10;88.70;;;;;;5115100;28;20497;-73
2024/03/11 09:31:06;;;;;;;4.50;2.10;;;8.10;88.70;;;;;;5113083;28;20127;-73
2024/03/11 09:33:31;;;;;;;4.07;2.22;;;8.10;88.70;;;;;;5113698;28;20127;-73
2024/03/11 09:35:58;;;;;;;4.70;2.22;;;8.10;88.70;;;;;;5114776;28;20056;-73
2024/03/11 09:38:25;;;;;;;4.65;2.45;;;8.10;88.60;;;;;;5096223;28;20078;-74
2024/03/11 09:40:53;;;;;;;4.25;2.22;;;8.10;88.70;;;;;;5114566;28;20040;-73
2024/03/11 09:43:19;;;;;;;4.55;2.35;;;8.10;88.60;;;;;;5117107;28;20502;-73
2024/03/11 09:45:47;;;;;;;5.03;2.60;;;8.20;88.70;;;;;;5135141;28;20043;-73
2024/03/11 09:48:14;;;;;;;4.53;2.50;;;8.20;88.70;;;;;;5134770;28;20035;-72
2024/03/11 09:50:42;;;;;;;4.65;2.30;;;8.10;88.70;;;;;;5110950;28;20046;-72
2024/03/11 09:53:12;;;;;;;3.67;2.22;;;8.10;88.80;;;;;;5114816;28;20036;-72
2024/03/11 09:55:39;;;;;;;4.68;2.45;;;8.10;88.80;;;;;;5114195;28;20043;-72
2024/03/11 09:58:10;;;;;;;3.45;1.83;;;8.10;88.80;;;;;;5114662;28;20055;-72
2024/03/11 10:00:48;;;;;;;4.40;2.17;;;8.10;88.90;;;;;;5114808;28;20056;-73
2024/03/11 10:03:15;;;;;;;4.05;2.13;;;8.00;88.80;;;;;;5132893;28;20142;-73
2024/03/11 10:05:44;;;;;;;4.40;2.20;;;8.20;89.00;;;;;;5099882;28;20458;-73
2024/03/11 10:08:11;;;;;;;3.35;2.08;;;8.10;88.90;;;;;;5134771;28;20039;-73
2024/03/11 10:10:38;;;;;;;4.57;2.45;;;8.20;88.90;;;;;;5112732;28;20040;-72
2024/03/11 10:13:05;;;;;;;4.30;1.95;;;8.10;89.00;;;;;;5112687;28;20039;-73
2024/03/11 10:15:33;;;;;;;3.55;1.60;;;8.10;89.00;;;;;;5112521;28;20034;-72
2024/03/11 10:18:25;;;;;;;3.28;1.98;;;8.20;89.00;;;;;;5113869;28;20126;-73
2024/03/11 10:20:59;;;;;;;3.53;1.90;;;8.20;89.00;;;;;;5113824;28;20039;-73
2024/03/11 10:23:27;;;;;;;4.15;1.80;;;8.20;89.00;;;;;;5114178;28;20042;-73
2024/03/11 10:26:12;;;;;;;3.88;1.75;;;8.20;89.00;;;;;;5114230;28;20045;-73
2024/03/11 10:28:39;;;;;;;3.63;2.03;;;8.10;89.10;;;;;;5112810;28;20047;-72
2024/03/11 10:31:21;;;;;;;4.18;2.08;;;8.20;89.10;;;;;;5113635;28;20040;-73
2024/03/11 10:33:50;;;;;;;4.22;2.03;;;8.20;89.10;;;;;;5113056;28;20035;-72
2024/03/11 10:36:15;;;;;;;3.80;1.90;;;8.20;89.10;;;;;;5113884;28;20040;-72
2024/03/11 10:38:43;;;;;;;3.67;2.00;;;8.20;89.10;;;;;;5112184;28;20051;-72
2024/03/11 10:41:23;;;;;;;3.80;2.03;;;8.30;89.20;;;;;;5113233;28;20035;-72
2024/03/11 10:43:51;;;;;;;3.72;2.13;;;8.30;89.30;;;;;;5113326;28;20177;-72
2024/03/11 10:46:20;;;;;;;3.10;1.77;;;8.20;89.10;;;;;;5130936;28;20508;-72
2024/03/11 10:48:47;;;;;;;2.60;1.67;;;8.20;89.20;;;;;;5133932;28;20522;-72
2024/03/11 10:51:21;;;;;;;3.10;1.55;;;8.20;89.20;;;;;;5098807;28;20119;-73
2024/03/11 10:53:52;;;;;;;4.18;2.33;;;8.20;89.30;;;;;;5115438;28;20049;-72
2024/03/11 10:56:20;;;;;;;;;;;8.20;89.20;;;;;;5134324;28;20093;-73
2024/03/11 10:59:03;;;;;;;3.88;2.00;;;8.20;89.10;;;;;;5111950;28;19941;-72
2024/03/11 11:01:33;;;;;;;3.38;1.92;;;8.20;89.20;;;;;;5111849;28;20397;-72
2024/03/11 11:04:05;;;;;;;4.15;2.17;;;8.20;89.10;;;;;;5118764;28;20039;-72
2024/03/11 11:06:33;;;;;;;2.97;1.77;;;8.10;89.20;;;;;;5133823;28;20069;-72
2024/03/11 11:09:11;;;;;;;2.92;1.77;;;8.10;89.30;;;;;;5111644;28;20044;-73
2024/03/11 11:11:41;;;;;;;3.67;2.13;;;8.20;89.30;;;;;;5113481;28;20148;-72
2024/03/11 11:14:11;;;;;;;3.10;1.63;;;8.20;89.30;;;;;;5111678;28;20059;-72
2024/03/11 11:16:41;;;;;;;3.38;1.90;;;8.20;89.30;;;;;;5112108;28;20061;-72
2024/03/11 11:19:10;;;;;;;3.70;1.67;;;8.20;89.30;;;;;;5112397;28;20055;-72
2024/03/11 11:21:39;;;;;;;3.83;1.90;;;8.20;89.30;;;;;;5111512;28;20035;-72
2024/03/11 11:24:26;;;;;;;6.07;3.10;;;8.30;89.30;;;;;;5113422;28;20052;-72
2024/03/11 11:26:56;;;;;;;5.50;2.67;;;8.20;89.30;;;;;;5130102;28;20035;-72
2024/03/11 11:29:24;;;;;;;3.85;2.20;;;8.20;89.30;;;;;;5133637;28;20179;-72
2024/03/11 11:32:11;;;;;;;4.82;2.47;;;8.20;89.30;;;;;;5133598;28;20042;-72
2024/03/11 11:34:49;;;;;;;4.78;2.40;;;8.30;89.40;;;;;;5133489;28;20128;-72
2024/03/11 11:37:36;;;;;;;4.70;2.40;;;8.20;89.30;;;;;;5115376;28;20047;-72
2024/03/11 11:40:26;;;;;;;5.57;2.83;;;8.30;89.30;;;;;;5111696;28;20487;-72
2024/03/11 11:42:52;;;;;;;6.05;3.15;;;8.30;89.30;;;;;;5112520;28;20505;-72
2024/03/11 11:45:45;;;;;;;5.28;2.70;;;8.30;89.30;;;;;;5111323;28;20047;-72
2024/03/11 11:48:20;;;;;;;5.75;3.33;;;8.30;89.30;;;;;;5111026;28;20512;-72
2024/03/11 11:50:45;;;;;;;5.25;2.92;;;8.30;89.30;;;;;;5112465;28;20119;-72
2024/03/11 11:53:11;;;;;;;6.03;2.88;;;8.30;89.30;;;;;;5112851;28;20070;-72
2024/03/11 11:55:50;;;;;;;4.78;2.40;;;8.30;89.40;;;;;;5111442;28;20032;-72
2024/03/11 11:58:16;;;;;;;5.35;2.67;;;8.30;89.40;;;;;;5094397;28;20394;-72
2024/03/11 12:00:43;;;;;;;5.07;2.78;;;8.30;89.30;;;;;;5093987;28;20035;-72
2024/03/11 12:03:30;;;;;;;4.32;2.63;;;8.30;89.30;;;;;;5112274;28;20084;-72
2024/03/11 12:06:02;;;;;;;4.28;2.28;;;8.30;89.40;;;;;;5112643;28;20069;-73
2024/03/11 12:08:29;;;;;;;4.13;2.00;;;8.40;89.30;;;;;;5129990;28;20040;-72
2024/03/11 12:11:14;;;;;;;4.35;2.47;;;8.40;89.30;;;;;;5114498;28;20039;-72
2024/03/11 12:13:42;;;;;;;6.30;3.10;;;8.40;89.30;;;;;;5094318;28;20043;-72
2024/03/11 12:16:10;;;;;;;4.55;2.47;;;8.40;89.30;;;;;;5133055;28;20035;-72
2024/03/11 12:18:39;;;;;;;4.72;2.08;;;8.40;89.40;;;;;;5133113;28;20126;-72
2024/03/11 12:21:07;;;;;;;6.00;3.15;;;8.40;89.50;;;;;;5132873;28;20551;-72
2024/03/11 12:23:34;;;;;;;7.32;2.92;;;8.40;89.40;;;;;;5114157;28;20096;-73
2024/03/11 12:26:00;;;;;;;3.70;2.25;;;8.30;89.40;;;;;;5133071;28;20054;-74
2024/03/11 12:28:26;;;;;;;5.03;2.17;;;8.40;89.50;;;;;;5133039;28;20043;-73
2024/03/11 12:30:52;;;;;;;3.83;2.13;;;8.40;89.50;;;;;;5114606;28;20043;-73
2024/03/11 12:33:17;;;;;;;3.97;2.13;;;8.40;89.50;;;;;;5132465;28;20035;-72
2024/03/11 12:35:44;;;;;;;3.03;1.95;;;8.40;89.60;;;;;;5114074;28;20567;-72
2024/03/11 12:38:13;;;;;;;3.17;2.08;;;8.50;89.60;;;;;;5114034;28;20047;-73
2024/03/11 12:40:46;;;;;;;4.40;2.17;;;8.50;89.60;;;;;;5113687;28;20119;-72
2024/03/11 12:43:14;;;;;;;3.90;2.08;;;8.50;89.60;;;;;;5132749;28;20039;-73
2024/03/11 12:45:42;;;;;;;3.83;2.28;;;8.40;89.50;;;;;;5097252;28;20046;-73
2024/03/11 12:48:12;;;;;;;3.40;1.70;;;8.50;89.60;;;;;;5114267;28;20134;-73
2024/03/11 12:50:40;;;;;;;3.35;1.80;;;8.50;89.60;;;;;;5110440;28;20035;-73
2024/03/11 12:53:07;;;;;;;3.63;2.00;;;8.60;89.60;;;;;;5113294;28;20039;-73
2024/03/11 12:55:33;;;;;;;4.30;1.80;;;8.50;89.60;;;;;;5115389;28;20526;-74
2024/03/11 12:58:12;;;;;;;4.60;2.38;;;8.50;89.60;;;;;;5129528;28;20125;-73
2024/03/11 13:00:40;;;;;;;4.32;2.30;;;8.50;89.70;;;;;;5135865;28;20078;-74